createdAt,value
2018-08-23T00:00:36.886Z,99.90
2018-08-23T00:03:12.732Z,99.90
2018-08-23T00:05:45.043Z,99.90
2018-08-23T00:08:13.118Z,99.90
2018-08-23T00:10:41.161Z,99.90
2018-08-23T00:13:09.248Z,99.90
2018-08-23T00:15:37.284Z,99.90
2018-08-23T00:18:05.372Z,99.90
2018-08-23T00:20:36.098Z,99.90
2018-08-23T00:23:04.712Z,99.90
2018-08-23T00:25:32.772Z,99.90
2018-08-23T00:28:07.939Z,99.90
2018-08-23T00:30:36.387Z,99.90
2018-08-23T00:33:06.807Z,99.90
2018-08-23T00:35:36.316Z,99.90
2018-08-23T00:38:05.202Z,99.90
2018-08-23T00:40:42.291Z,99.90
2018-08-23T00:43:11.586Z,99.90
2018-08-23T00:45:39.693Z,99.90
2018-08-23T00:48:07.753Z,99.90
2018-08-23T00:50:52.803Z,99.90
2018-08-23T00:53:20.905Z,99.90
2018-08-23T00:55:53.917Z,99.90
2018-08-23T00:58:22.055Z,99.90
2018-08-23T01:00:54.331Z,99.90
2018-08-23T01:03:22.399Z,99.90
2018-08-23T01:05:50.454Z,99.90
2018-08-23T01:08:24.064Z,99.90
2018-08-23T01:10:52.180Z,99.90
2018-08-23T01:13:20.235Z,99.90
2018-08-23T01:15:49.826Z,99.90
2018-08-23T01:18:20.156Z,99.90
2018-08-23T01:20:49.752Z,99.90
2018-08-23T01:23:17.839Z,99.90
2018-08-23T01:25:47.015Z,99.90
2018-08-23T01:28:15.068Z,99.90
2018-08-23T01:30:43.663Z,99.90
2018-08-23T01:33:12.575Z,99.90
2018-08-23T01:35:41.239Z,99.90
2018-08-23T01:38:09.840Z,99.90
2018-08-23T01:40:37.963Z,99.90
2018-08-23T01:43:06.009Z,99.90
2018-08-23T01:45:34.064Z,99.90
2018-08-23T01:48:04.200Z,99.90
2018-08-23T01:50:32.271Z,99.90
2018-08-23T01:53:00.346Z,99.90
2018-08-23T01:55:28.444Z,99.90
2018-08-23T01:57:56.543Z,99.90
2018-08-23T02:00:26.781Z,99.90
2018-08-23T02:02:54.947Z,99.90
2018-08-23T02:05:23.068Z,99.90
2018-08-23T02:07:51.156Z,99.90
2018-08-23T02:10:19.223Z,99.90
2018-08-23T02:12:53.300Z,99.90
2018-08-23T02:15:21.563Z,99.90
2018-08-23T02:17:59.164Z,99.90
2018-08-23T02:20:28.055Z,99.90
2018-08-23T02:22:56.383Z,99.90
2018-08-23T02:25:24.729Z,99.90
2018-08-23T02:28:02.709Z,99.90
2018-08-23T02:30:43.925Z,99.90
2018-08-23T02:33:12.733Z,99.90
2018-08-23T02:35:45.319Z,99.90
2018-08-23T02:38:13.401Z,99.90
2018-08-23T02:43:16.045Z,99.90
2018-08-23T02:45:49.564Z,99.90
2018-08-23T02:48:17.633Z,99.90
2018-08-23T02:50:47.017Z,99.90
2018-08-23T02:53:29.135Z,99.90
2018-08-23T02:56:01.705Z,99.90
2018-08-23T02:58:29.892Z,99.90
2018-08-23T03:00:57.956Z,99.90
2018-08-23T03:03:26.012Z,99.90
2018-08-23T03:05:54.070Z,99.90
2018-08-23T03:08:33.524Z,99.90
2018-08-23T03:11:01.588Z,99.90
2018-08-23T03:13:30.319Z,99.90
2018-08-23T03:15:58.356Z,99.90
2018-08-23T03:18:26.429Z,99.90
2018-08-23T03:21:03.933Z,99.90
2018-08-23T03:23:32.009Z,99.90
2018-08-23T03:26:00.043Z,99.90
2018-08-23T03:28:28.072Z,99.90
2018-08-23T03:31:01.016Z,99.90
2018-08-23T03:33:30.096Z,99.90
2018-08-23T03:35:58.137Z,99.90
2018-08-23T03:38:26.196Z,99.90
2018-08-23T03:40:54.369Z,99.90
2018-08-23T03:43:22.407Z,99.90
2018-08-23T03:45:50.489Z,99.90
2018-08-23T03:48:18.557Z,99.90
2018-08-23T03:50:51.604Z,99.90
2018-08-23T03:53:19.921Z,99.90
2018-08-23T03:56:00.176Z,99.90
2018-08-23T03:58:28.241Z,99.90
2018-08-23T04:01:02.378Z,99.90
2018-08-23T04:03:30.716Z,99.90
2018-08-23T04:06:13.052Z,99.90
2018-08-23T04:08:41.093Z,99.90
2018-08-23T04:11:09.170Z,99.90
2018-08-23T04:13:37.274Z,99.90
2018-08-23T04:16:05.337Z,99.90
2018-08-23T04:18:33.412Z,99.90
2018-08-23T04:21:01.464Z,99.90
2018-08-23T04:23:29.532Z,99.90
2018-08-23T04:25:57.592Z,99.90
2018-08-23T04:28:25.651Z,99.90
2018-08-23T04:30:53.716Z,99.90
2018-08-23T04:33:21.807Z,99.90
2018-08-23T04:35:49.864Z,99.90
2018-08-23T04:38:17.948Z,99.90
2018-08-23T04:40:55.768Z,99.90
2018-08-23T04:43:23.912Z,99.90
2018-08-23T04:45:51.943Z,99.90
2018-08-23T04:48:20.144Z,99.90
2018-08-23T04:50:48.312Z,99.90
2018-08-23T04:53:16.392Z,99.90
2018-08-23T04:55:44.443Z,99.90
2018-08-23T04:58:12.968Z,99.90
2018-08-23T05:00:41.226Z,99.90
2018-08-23T05:03:09.300Z,99.90
2018-08-23T05:05:37.405Z,99.90
2018-08-23T05:08:05.556Z,99.90
2018-08-23T05:13:07.643Z,99.90
2018-08-23T05:15:35.747Z,99.90
2018-08-23T05:18:03.788Z,99.90
2018-08-23T05:20:31.848Z,99.90
2018-08-23T05:23:03.804Z,99.90
2018-08-23T05:25:31.905Z,99.90
2018-08-23T05:28:09.800Z,99.90
2018-08-23T05:30:37.850Z,99.90
2018-08-23T05:33:11.329Z,99.90
2018-08-23T05:35:39.368Z,99.90
2018-08-23T05:38:09.016Z,99.90
2018-08-23T05:40:42.782Z,99.90
2018-08-23T05:43:10.955Z,99.90
2018-08-23T05:45:44.419Z,99.90
2018-08-23T05:48:32.249Z,99.90
2018-08-23T05:51:07.529Z,99.90
2018-08-23T05:53:40.928Z,99.90
2018-08-23T05:56:09.199Z,99.90
2018-08-23T05:58:37.332Z,99.90
2018-08-23T06:01:05.377Z,99.90
2018-08-23T06:03:33.403Z,99.90
2018-08-23T06:06:01.455Z,99.90
2018-08-23T06:08:29.508Z,99.90
2018-08-23T06:11:03.432Z,99.90
2018-08-23T06:13:31.485Z,99.90
2018-08-23T06:15:59.500Z,99.90
2018-08-23T06:18:28.071Z,99.90
2018-08-23T06:20:56.136Z,99.90
2018-08-23T06:23:35.827Z,99.90
2018-08-23T06:26:03.854Z,99.90
2018-08-23T06:28:31.884Z,99.90
2018-08-23T06:31:01.370Z,99.90
2018-08-23T06:33:37.745Z,99.90
2018-08-23T06:36:06.619Z,99.90
2018-08-23T06:38:35.539Z,99.90
2018-08-23T06:41:04.795Z,99.90
2018-08-23T06:43:33.582Z,99.90
2018-08-23T06:46:02.394Z,99.90
2018-08-23T06:48:30.748Z,99.90
2018-08-23T06:50:59.885Z,99.90
2018-08-23T06:53:39.010Z,99.90
2018-08-23T06:56:07.045Z,99.90
2018-08-23T06:58:35.293Z,99.90
2018-08-23T07:01:04.110Z,99.90
2018-08-23T07:03:33.128Z,99.90
2018-08-23T07:06:01.149Z,99.90
2018-08-23T07:08:29.192Z,99.90
2018-08-23T07:11:05.727Z,99.90
2018-08-23T07:13:33.772Z,99.90
2018-08-23T07:16:01.827Z,99.90
2018-08-23T07:18:31.367Z,99.90
2018-08-23T07:20:59.517Z,99.90
2018-08-23T07:23:33.855Z,99.90
2018-08-23T07:26:03.198Z,99.90
2018-08-23T07:28:31.868Z,99.90
2018-08-23T07:30:59.937Z,99.90
2018-08-23T07:33:28.216Z,99.90
2018-08-23T07:36:07.928Z,99.90
2018-08-23T07:38:36.002Z,99.90
2018-08-23T07:41:04.068Z,99.90
2018-08-23T07:43:32.195Z,99.90
2018-08-23T07:46:00.246Z,99.90
2018-08-23T07:48:28.291Z,99.90
2018-08-23T07:50:56.358Z,99.90
2018-08-23T07:53:24.519Z,99.90
2018-08-23T07:55:52.540Z,99.90
2018-08-23T07:58:20.596Z,99.90
2018-08-23T08:00:48.644Z,99.90
2018-08-23T08:03:16.682Z,99.90
2018-08-23T08:05:45.635Z,99.90
2018-08-23T08:08:14.428Z,99.90
2018-08-23T08:10:44.856Z,99.90
2018-08-23T08:13:12.885Z,99.90
2018-08-23T08:15:40.903Z,99.90
2018-08-23T08:18:21.052Z,99.30
2018-08-23T08:20:55.130Z,98.20
2018-08-23T08:23:23.132Z,98.50
2018-08-23T08:25:51.193Z,96.00
2018-08-23T08:28:19.480Z,95.10
2018-08-23T08:30:48.254Z,93.60
2018-08-23T08:33:17.534Z,91.60
2018-08-23T08:35:46.357Z,91.70
2018-08-23T08:38:14.415Z,90.50
2018-08-23T08:40:42.500Z,89.80
2018-08-23T08:43:10.552Z,87.70
2018-08-23T08:45:38.620Z,86.10
2018-08-23T08:48:14.765Z,84.10
2018-08-23T08:50:48.363Z,80.20
2018-08-23T08:53:16.500Z,80.30
2018-08-23T08:55:44.546Z,79.70
2018-08-23T08:58:12.584Z,73.90
2018-08-23T09:00:50.627Z,73.90
2018-08-23T09:03:19.399Z,68.30
2018-08-23T09:05:47.477Z,65.90
2018-08-23T09:08:15.516Z,67.00
2018-08-23T09:10:43.601Z,65.30
2018-08-23T09:13:11.663Z,60.20
2018-08-23T09:15:39.708Z,60.70
2018-08-23T09:18:07.742Z,58.80
2018-08-23T09:20:35.893Z,54.00
2018-08-23T09:23:03.872Z,52.30
2018-08-23T09:25:37.498Z,50.40
2018-08-23T09:28:05.550Z,47.40
2018-08-23T09:30:33.768Z,43.30
2018-08-23T09:33:08.471Z,40.80
2018-08-23T09:35:36.761Z,39.60
2018-08-23T09:38:13.815Z,39.30
2018-08-23T09:40:41.960Z,39.00
2018-08-23T09:43:10.077Z,38.00
2018-08-23T09:45:38.785Z,37.50
2018-08-23T09:48:06.856Z,36.40
2018-08-23T09:50:34.938Z,38.10
2018-08-23T09:53:08.648Z,36.20
2018-08-23T09:55:36.686Z,37.40
2018-08-23T09:58:04.714Z,35.90
2018-08-23T10:00:38.416Z,35.60
2018-08-23T10:03:11.852Z,35.90
2018-08-23T10:05:47.448Z,34.60
2018-08-23T10:08:21.815Z,35.90
2018-08-23T10:10:55.454Z,35.40
2018-08-23T10:13:28.887Z,35.10
2018-08-23T10:16:02.359Z,35.40
2018-08-23T10:18:35.874Z,34.10
2018-08-23T10:21:04.307Z,33.80
2018-08-23T10:23:32.341Z,33.60
2018-08-23T10:26:04.651Z,32.70
2018-08-23T10:28:38.097Z,33.20
2018-08-23T10:31:06.155Z,32.40
2018-08-23T10:33:34.209Z,31.70
2018-08-23T10:36:02.299Z,31.70
2018-08-23T10:38:30.349Z,31.20
2018-08-23T10:41:05.275Z,30.00
2018-08-23T10:43:38.677Z,30.00
2018-08-23T10:46:06.864Z,31.60
2018-08-23T10:48:34.915Z,31.20
2018-08-23T10:51:03.041Z,31.80
2018-08-23T10:53:31.083Z,30.10
2018-08-23T10:55:59.183Z,30.10
2018-08-23T10:58:27.224Z,30.90
2018-08-23T11:00:56.440Z,30.70
2018-08-23T11:03:24.515Z,29.50
2018-08-23T11:05:52.885Z,29.00
2018-08-23T11:08:24.009Z,29.00
2018-08-23T11:10:57.525Z,28.80
2018-08-23T11:13:31.035Z,29.70
2018-08-23T11:16:04.625Z,30.00
2018-08-23T11:18:38.004Z,29.30
2018-08-23T11:21:06.073Z,30.00
2018-08-23T11:23:34.120Z,29.80
2018-08-23T11:26:02.192Z,29.70
2018-08-23T11:28:30.232Z,29.40
2018-08-23T11:31:02.028Z,29.30
2018-08-23T11:33:30.094Z,28.20
2018-08-23T11:35:58.154Z,28.50
2018-08-23T11:38:26.239Z,27.60
2018-08-23T11:40:54.322Z,27.30
2018-08-23T11:43:22.386Z,27.20
2018-08-23T11:45:55.848Z,28.30
2018-08-23T11:48:23.910Z,27.00
2018-08-23T11:50:51.946Z,26.40
2018-08-23T11:53:20.068Z,25.60
2018-08-23T11:55:48.092Z,26.00
2018-08-23T11:58:16.172Z,26.30
2018-08-23T12:00:44.224Z,25.80
2018-08-23T12:03:12.280Z,26.30
2018-08-23T12:05:40.336Z,25.30
2018-08-23T12:08:08.365Z,25.90
2018-08-23T12:10:36.416Z,25.30
2018-08-23T12:13:04.600Z,25.10
2018-08-23T12:15:33.312Z,26.20
2018-08-23T12:18:01.348Z,27.00
2018-08-23T12:20:29.400Z,27.10
2018-08-23T12:22:57.432Z,26.10
2018-08-23T12:25:25.468Z,26.30
2018-08-23T12:28:05.177Z,25.00
2018-08-23T12:30:33.240Z,25.90
2018-08-23T12:33:01.309Z,25.40
2018-08-23T12:35:31.705Z,25.60
2018-08-23T12:38:05.264Z,25.60
2018-08-23T12:40:38.780Z,26.50
2018-08-23T12:43:12.251Z,26.60
2018-08-23T12:45:42.509Z,26.30
2018-08-23T12:48:11.673Z,25.80
2018-08-23T12:50:40.252Z,25.30
2018-08-23T12:53:08.337Z,24.60
2018-08-23T12:55:36.367Z,24.20
2018-08-23T12:58:08.848Z,23.80
2018-08-23T13:00:37.348Z,24.00
2018-08-23T13:03:05.924Z,23.80
2018-08-23T13:05:34.123Z,24.20
2018-08-23T13:08:02.193Z,25.40
2018-08-23T13:10:30.348Z,26.80
2018-08-23T13:12:58.436Z,28.00
2018-08-23T13:15:26.511Z,27.40
2018-08-23T13:17:54.559Z,27.30
2018-08-23T13:20:22.613Z,26.90
2018-08-23T13:22:50.661Z,26.70
2018-08-23T13:25:18.701Z,28.20
2018-08-23T13:27:46.745Z,28.50
2018-08-23T13:30:14.775Z,28.20
2018-08-23T13:32:42.817Z,29.10
2018-08-23T13:35:10.856Z,29.10
2018-08-23T13:37:38.929Z,28.40
2018-08-23T13:40:11.233Z,28.80
2018-08-23T13:42:39.349Z,29.20
2018-08-23T13:45:07.340Z,29.80
2018-08-23T13:47:35.413Z,28.90
2018-08-23T13:50:03.546Z,29.20
2018-08-23T13:52:31.581Z,28.80
2018-08-23T13:54:59.640Z,28.90
2018-08-23T13:57:27.781Z,29.40
2018-08-23T13:59:55.856Z,29.20
2018-08-23T14:02:23.994Z,29.70
2018-08-23T14:04:52.011Z,30.40
2018-08-23T14:07:20.103Z,30.80
2018-08-23T14:09:48.132Z,29.40
2018-08-23T14:12:16.273Z,29.90
2018-08-23T14:14:44.316Z,30.20
2018-08-23T14:17:12.404Z,29.90
2018-08-23T14:19:40.461Z,29.50
2018-08-23T14:22:08.528Z,29.20
2018-08-23T14:24:36.652Z,29.90
2018-08-23T14:27:04.742Z,30.00
2018-08-23T14:29:32.768Z,29.80
2018-08-23T14:32:00.814Z,29.60
2018-08-23T14:34:28.872Z,29.50
2018-08-23T14:36:56.910Z,27.00
2018-08-23T14:39:24.946Z,27.20
2018-08-23T14:41:52.987Z,27.70
2018-08-23T14:44:21.260Z,27.50
2018-08-23T14:46:54.729Z,27.70
2018-08-23T14:49:28.189Z,27.30
2018-08-23T14:51:56.219Z,27.10
2018-08-23T14:54:29.837Z,27.20
2018-08-23T14:57:03.459Z,27.10
2018-08-23T14:59:31.536Z,27.20
2018-08-23T15:01:59.588Z,27.90
2018-08-23T15:04:27.644Z,27.60
2018-08-23T15:06:55.737Z,27.70
2018-08-23T15:09:27.509Z,28.20
2018-08-23T15:11:55.765Z,28.50
2018-08-23T15:14:23.843Z,27.70
2018-08-23T15:16:51.969Z,28.10
2018-08-23T15:19:20.045Z,28.40
2018-08-23T15:21:48.276Z,28.40
2018-08-23T15:24:16.405Z,27.90
2018-08-23T15:26:44.944Z,30.00
2018-08-23T15:29:13.537Z,31.80
2018-08-23T15:31:43.560Z,29.70
2018-08-23T15:34:11.716Z,29.10
2018-08-23T15:36:39.853Z,29.40
2018-08-23T15:39:09.997Z,30.20
2018-08-23T15:41:38.290Z,29.20
2018-08-23T15:44:06.679Z,30.10
2018-08-23T15:46:40.150Z,30.00
2018-08-23T15:49:08.401Z,29.70
2018-08-23T15:51:37.040Z,29.80
2018-08-23T15:54:05.260Z,30.00
2018-08-23T15:56:33.490Z,31.50
2018-08-23T15:59:02.100Z,32.10
2018-08-23T16:01:30.309Z,32.60
2018-08-23T16:04:03.964Z,35.40
2018-08-23T16:06:32.049Z,32.10
2018-08-23T16:09:00.131Z,34.30
2018-08-23T16:11:28.207Z,35.30
2018-08-23T16:13:56.347Z,32.70
2018-08-23T16:16:29.881Z,33.20
2018-08-23T16:19:03.364Z,32.90
2018-08-23T16:21:36.620Z,32.70
2018-08-23T16:24:04.766Z,33.50
2018-08-23T16:26:38.271Z,35.10
2018-08-23T16:29:06.687Z,32.40
2018-08-23T16:31:34.793Z,33.10
2018-08-23T16:34:02.870Z,31.70
2018-08-23T16:36:30.944Z,32.00
2018-08-23T16:38:59.123Z,33.20
2018-08-23T16:41:27.179Z,34.60
2018-08-23T16:43:56.033Z,38.80
2018-08-23T16:46:24.198Z,35.60
2018-08-23T16:48:52.435Z,41.60
2018-08-23T16:51:21.917Z,41.80
2018-08-23T16:53:50.307Z,40.80
2018-08-23T16:56:18.566Z,42.00
2018-08-23T16:58:47.065Z,43.20
2018-08-23T17:01:15.393Z,38.10
2018-08-23T17:03:46.929Z,39.60
2018-08-23T17:06:15.032Z,43.80
2018-08-23T17:08:43.078Z,46.80
2018-08-23T17:11:11.131Z,49.60
2018-08-23T17:13:39.221Z,51.70
2018-08-23T17:16:12.905Z,52.30
2018-08-23T17:18:40.948Z,53.40
2018-08-23T17:21:09.398Z,54.20
2018-08-23T17:23:37.567Z,54.70
2018-08-23T17:26:05.778Z,56.40
2018-08-23T17:28:33.861Z,58.00
2018-08-23T17:31:02.411Z,59.70
2018-08-23T17:33:31.464Z,63.00
2018-08-23T17:35:59.569Z,67.30
2018-08-23T17:38:29.128Z,74.80
2018-08-23T17:40:57.981Z,90.00
2018-08-23T17:43:26.442Z,97.30
2018-08-23T17:45:54.515Z,99.90
2018-08-23T17:48:22.757Z,99.90
2018-08-23T17:50:50.778Z,99.90
2018-08-23T17:53:19.037Z,99.90
2018-08-23T17:55:47.099Z,99.90
2018-08-23T17:58:15.230Z,99.90
2018-08-23T18:00:43.321Z,99.90
2018-08-23T18:03:12.118Z,99.90
2018-08-23T18:05:40.153Z,99.90
2018-08-23T18:08:08.184Z,99.90
2018-08-23T18:10:36.217Z,99.90
2018-08-23T18:13:04.279Z,99.90
2018-08-23T18:15:37.815Z,99.90
2018-08-23T18:18:05.967Z,99.90
2018-08-23T18:20:34.154Z,99.90
2018-08-23T18:23:02.044Z,99.90
2018-08-23T18:25:30.489Z,99.90
2018-08-23T18:27:58.480Z,99.90
2018-08-23T18:30:26.587Z,99.90
2018-08-23T18:32:54.625Z,99.90
2018-08-23T18:35:22.692Z,99.90
2018-08-23T18:37:50.720Z,99.90
2018-08-23T18:40:18.739Z,99.90
2018-08-23T18:42:46.764Z,99.90
2018-08-23T18:45:14.836Z,99.90
2018-08-23T18:47:43.289Z,99.90
2018-08-23T18:50:11.341Z,99.90
2018-08-23T18:52:46.116Z,99.90
2018-08-23T18:55:14.157Z,99.90
2018-08-23T18:57:42.176Z,99.90
2018-08-23T19:00:10.349Z,99.90
2018-08-23T19:02:38.256Z,99.90
2018-08-23T19:05:06.397Z,99.90
2018-08-23T19:07:40.977Z,99.90
2018-08-23T19:10:09.731Z,99.90
2018-08-23T19:12:37.717Z,99.90
2018-08-23T19:15:06.080Z,99.90
2018-08-23T19:17:35.900Z,99.90
2018-08-23T19:20:03.998Z,99.90
2018-08-23T19:22:32.051Z,99.90
2018-08-23T19:25:00.106Z,99.90
2018-08-23T19:27:28.205Z,99.90
2018-08-23T19:29:57.088Z,99.90
2018-08-23T19:32:25.170Z,99.90
2018-08-23T19:34:53.203Z,99.90
2018-08-23T19:37:21.264Z,99.90
2018-08-23T19:39:49.295Z,99.90
2018-08-23T19:42:17.371Z,99.90
2018-08-23T19:44:50.864Z,99.90
2018-08-23T19:47:24.340Z,99.90
2018-08-23T19:49:55.086Z,99.90
2018-08-23T19:52:23.189Z,99.90
2018-08-23T19:54:51.937Z,99.90
2018-08-23T19:57:20.004Z,99.90
2018-08-23T19:59:48.035Z,99.90
2018-08-23T20:02:16.103Z,99.90
2018-08-23T20:04:44.425Z,99.90
2018-08-23T20:07:13.527Z,99.90
2018-08-23T20:09:41.592Z,99.90
2018-08-23T20:12:09.964Z,99.90
2018-08-23T20:14:38.763Z,99.90
2018-08-23T20:17:06.884Z,99.90
2018-08-23T20:19:35.116Z,99.90
2018-08-23T20:22:04.720Z,99.90
2018-08-23T20:24:32.747Z,99.90
2018-08-23T20:27:00.772Z,99.90
2018-08-23T20:29:28.831Z,99.90
2018-08-23T20:31:56.868Z,99.90
2018-08-23T20:34:24.904Z,99.90
2018-08-23T20:36:52.941Z,99.90
2018-08-23T20:39:21.173Z,99.90
2018-08-23T20:41:49.019Z,99.90
2018-08-23T20:44:17.043Z,99.90
2018-08-23T20:46:45.079Z,99.90
2018-08-23T20:49:13.132Z,99.90
2018-08-23T20:51:41.186Z,99.90
2018-08-23T20:54:09.650Z,99.90
2018-08-23T20:56:37.799Z,99.90
2018-08-23T20:59:05.901Z,99.90
2018-08-23T21:01:33.965Z,99.90
2018-08-23T21:04:02.025Z,99.90
2018-08-23T21:06:30.166Z,99.90
2018-08-23T21:08:58.209Z,99.90
2018-08-23T21:11:26.470Z,99.90
2018-08-23T21:13:54.509Z,99.90
2018-08-23T21:16:22.556Z,99.90
2018-08-23T21:18:50.587Z,99.90
2018-08-23T21:21:19.506Z,99.90
2018-08-23T21:23:48.264Z,99.90
2018-08-23T21:26:16.293Z,99.90
2018-08-23T21:28:44.332Z,99.90
2018-08-23T21:31:19.076Z,99.90
2018-08-23T21:33:47.169Z,99.90
2018-08-23T21:36:15.196Z,99.90
2018-08-23T21:38:43.231Z,99.90
2018-08-23T21:41:11.264Z,99.90
2018-08-23T21:43:39.320Z,99.90
2018-08-23T21:46:07.374Z,99.90
2018-08-23T21:48:35.420Z,99.90
2018-08-23T21:51:03.632Z,99.90
2018-08-23T21:53:31.653Z,99.90
2018-08-23T21:55:59.688Z,99.90
2018-08-23T21:58:27.711Z,99.90
2018-08-23T22:01:00.001Z,99.90
2018-08-23T22:03:28.044Z,99.90
2018-08-23T22:05:56.072Z,99.90
2018-08-23T22:08:24.087Z,99.90
2018-08-23T22:10:52.129Z,99.90
2018-08-23T22:13:20.185Z,99.90
2018-08-23T22:15:49.236Z,99.90
2018-08-23T22:18:18.115Z,99.90
2018-08-23T22:20:46.152Z,99.90
2018-08-23T22:23:14.472Z,99.90
2018-08-23T22:25:42.591Z,99.90
2018-08-23T22:28:10.924Z,99.90
2018-08-23T22:30:39.847Z,99.90
2018-08-23T22:33:08.816Z,99.90
2018-08-23T22:35:36.844Z,99.90
2018-08-23T22:38:05.368Z,99.90
2018-08-23T22:40:33.420Z,99.90
2018-08-23T22:43:01.446Z,99.90
2018-08-23T22:45:29.471Z,99.90
2018-08-23T22:47:57.507Z,99.90
2018-08-23T22:50:25.532Z,99.90
2018-08-23T22:52:53.564Z,99.90
2018-08-23T22:57:55.907Z,99.90
2018-08-23T23:00:29.535Z,99.90
2018-08-23T23:02:57.567Z,99.90
2018-08-23T23:05:25.598Z,99.90
2018-08-23T23:07:53.627Z,99.90
2018-08-23T23:10:21.651Z,99.90
2018-08-23T23:12:49.679Z,99.90
2018-08-23T23:15:23.264Z,99.90
2018-08-23T23:17:51.287Z,99.90
2018-08-23T23:20:19.324Z,99.90
2018-08-23T23:22:47.382Z,99.90
2018-08-23T23:25:15.408Z,99.90
2018-08-23T23:27:43.444Z,99.90
2018-08-23T23:30:11.470Z,99.90
2018-08-23T23:32:39.552Z,99.90
2018-08-23T23:35:07.585Z,99.90
2018-08-23T23:37:35.632Z,99.90
2018-08-23T23:40:03.678Z,99.90
2018-08-23T23:42:31.699Z,99.90
2018-08-23T23:44:59.792Z,99.90
2018-08-23T23:47:27.819Z,99.90
2018-08-23T23:49:56.034Z,99.90
2018-08-23T23:52:24.075Z,99.90
2018-08-23T23:54:52.100Z,99.90
2018-08-23T23:57:20.148Z,99.90
2018-08-23T23:59:48.220Z,99.90
